Time;durP1;ratioP1;P1;durP2;ratioP2;P2;SDS_P1;SDS_P2;PMS_P1;PMS_P2;Temp;Humidity;BMP_temperature;BMP_pressure;BME280_temperature;BME280_humidity;BME280_pressure;Samples;Min_cycle;Max_cycle;Signal;HPM_P1;HPM_P2
2022/09/20 00:00:47;;;;;;;3.17;2.80;;;;;;;;;;5075877;28;20187;-79
2022/09/20 00:03:14;;;;;;;4.23;2.70;;;;;;;;;;5076047;28;20173;-79
2022/09/20 00:05:41;;;;;;;6.47;3.10;;;;;;;;;;5057854;28;20173;-79
2022/09/20 00:08:10;;;;;;;5.10;2.83;;;;;;;;;;5057917;28;20246;-79
2022/09/20 00:10:38;;;;;;;3.83;2.73;;;;;;;;;;5067864;28;20209;-80
2022/09/20 00:13:07;;;;;;;4.30;3.20;;;;;;;;;;5083424;28;20211;-79
2022/09/20 00:15:34;;;;;;;5.87;2.90;;;;;;;;;;5070197;28;20205;-79
2022/09/20 00:18:00;;;;;;;3.57;2.43;;;;;;;;;;5090008;28;20187;-79
2022/09/20 00:20:26;;;;;;;4.03;2.60;;;;;;;;;;5091684;28;20660;-79
2022/09/20 00:22:52;;;;;;;4.60;2.83;;;;;;;;;;5091516;28;20176;-79
2022/09/20 00:25:19;;;;;;;4.00;2.77;;;;;;;;;;5091697;28;20188;-79
2022/09/20 00:27:45;;;;;;;4.23;2.70;;;;;;;;;;5072941;28;20197;-79
2022/09/20 00:30:12;;;;;;;6.23;2.43;;;;;;;;;;5055337;28;20180;-79
2022/09/20 00:32:39;;;;;;;3.77;2.90;;;;;;;;;;5072834;28;20173;-78
2022/09/20 00:35:09;;;;;;;3.53;2.50;;;;;;;;;;5073068;28;20267;-79
2022/09/20 00:37:37;;;;;;;5.20;3.40;;;;;;;;;;5091302;28;20172;-79
2022/09/20 00:40:04;;;;;;;5.50;3.37;;;;;;;;;;5063720;28;20236;-79
2022/09/20 00:42:30;;;;;;;5.13;3.70;;;;;;;;;;5056056;28;20177;-79
2022/09/20 00:44:58;;;;;;;4.63;3.27;;;;;;;;;;5090522;28;20187;-79
2022/09/20 00:47:27;;;;;;;5.00;3.10;;;;;;;;;;5090095;28;20204;-79
2022/09/20 00:49:58;;;;;;;3.80;3.00;;;;;;;;;;5062066;28;20641;-79
2022/09/20 00:52:25;;;;;;;3.87;3.10;;;;;;;;;;5090740;28;20173;-79
2022/09/20 00:54:52;;;;;;;6.80;3.97;;;;;;;;;;5087302;28;20198;-79
2022/09/20 00:57:18;;;;;;;5.50;3.60;;;;;;;;;;5072152;28;20168;-79
2022/09/20 00:59:46;;;;;;;6.53;4.53;;;;;;;;;;5038746;28;20211;-79
2022/09/20 01:02:16;;;;;;;6.70;5.00;;;;;;;;;;5082342;28;20183;-79
2022/09/20 01:04:43;;;;;;;6.40;5.10;;;;;;;;;;5082204;28;20173;-79
2022/09/20 01:07:10;;;;;;;6.00;4.50;;;;;;;;;;5072393;28;20215;-79
2022/09/20 01:09:37;;;;;;;6.20;4.30;;;;;;;;;;5090488;28;20609;-79
2022/09/20 01:12:05;;;;;;;5.90;4.10;;;;;;;;;;5091037;28;20651;-79
2022/09/20 01:14:31;;;;;;;6.27;3.73;;;;;;;;;;5072504;28;20208;-80
2022/09/20 01:17:02;;;;;;;6.43;4.27;;;;;;;;;;5089956;28;20665;-79
2022/09/20 01:19:28;;;;;;;6.30;4.60;;;;;;;;;;5090787;28;20192;-79
2022/09/20 01:21:54;;;;;;;5.37;4.43;;;;;;;;;;5090983;28;20180;-79
2022/09/20 01:24:31;;;;;;;6.43;4.07;;;;;;;;;;5090357;28;20188;-79
2022/09/20 01:27:02;;;;;;;6.37;4.43;;;;;;;;;;5052501;28;20184;-80
2022/09/20 01:29:43;;;;;;;7.57;3.90;;;;;;;;;;5090111;28;20822;-79
2022/09/20 01:32:12;;;;;;;5.23;3.40;;;;;;;;;;5072840;28;20183;-79
2022/09/20 01:34:44;;;;;;;6.63;3.90;;;;;;;;;;5097301;28;20184;-79
2022/09/20 01:37:16;;;;;;;7.73;4.23;;;;;;;;;;5089948;28;20169;-79
2022/09/20 01:39:50;;;;;;;5.70;3.33;;;;;;;;;;5088456;28;20269;-79
2022/09/20 01:42:16;;;;;;;6.53;4.07;;;;;;;;;;5067536;28;20703;-79
2022/09/20 01:44:42;;;;;;;8.40;3.87;;;;;;;;;;5085200;28;20189;-78
2022/09/20 01:47:34;;;;;;;9.60;4.80;;;;;;;;;;5090799;28;20177;-79
2022/09/20 01:50:04;;;;;;;10.47;5.37;;;;;;;;;;5061608;28;20204;-79
2022/09/20 01:52:33;;;;;;;9.00;5.17;;;;;;;;;;5081936;28;20179;-79
2022/09/20 01:55:18;;;;;;;5.70;4.40;;;;;;;;;;5068396;28;20214;-79
2022/09/20 01:57:56;;;;;;;6.83;3.90;;;;;;;;;;5089507;28;20592;-79
2022/09/20 02:00:30;;;;;;;6.17;3.63;;;;;;;;;;5055830;28;20588;-79
2022/09/20 02:03:11;;;;;;;6.27;3.57;;;;;;;;;;5089363;28;20599;-79
2022/09/20 02:06:03;;;;;;;6.53;3.83;;;;;;;;;;5062445;28;20193;-79
2022/09/20 02:08:35;;;;;;;4.90;3.00;;;;;;;;;;5088959;28;20215;-79
2022/09/20 02:11:08;;;;;;;6.33;3.43;;;;;;;;;;5067127;28;20184;-79
2022/09/20 02:13:40;;;;;;;7.63;3.60;;;;;;;;;;5054544;28;20267;-79
2022/09/20 02:16:25;;;;;;;6.23;3.27;;;;;;;;;;5055792;28;20220;-79
2022/09/20 02:19:10;;;;;;;8.63;3.70;;;;;;;;;;5084692;28;20228;-79
2022/09/20 02:21:42;;;;;;;7.83;3.80;;;;;;;;;;5084459;28;20192;-79
2022/09/20 02:24:27;;;;;;;10.50;3.53;;;;;;;;;;5070075;28;20695;-79
2022/09/20 02:27:12;;;;;;;8.93;4.67;;;;;;;;;;5083611;28;20189;-79
2022/09/20 02:29:46;;;;;;;9.30;4.23;;;;;;;;;;5082276;28;20188;-80
2022/09/20 02:32:13;;;;;;;7.77;4.13;;;;;;;;;;5084581;28;20168;-79
2022/09/20 02:34:51;;;;;;;5.20;3.30;;;;;;;;;;5068107;28;20222;-79
2022/09/20 02:37:25;;;;;;;6.80;3.70;;;;;;;;;;5051736;28;20188;-79
2022/09/20 02:40:10;;;;;;;4.30;3.40;;;;;;;;;;5063259;28;20262;-79
2022/09/20 02:42:45;;;;;;;7.97;4.67;;;;;;;;;;5066660;28;20196;-80
2022/09/20 02:45:30;;;;;;;6.13;3.80;;;;;;;;;;5064204;28;20188;-79
2022/09/20 02:48:00;;;;;;;5.33;3.40;;;;;;;;;;5084896;28;20227;-79
2022/09/20 02:50:45;;;;;;;6.00;3.87;;;;;;;;;;5081148;28;20185;-80
2022/09/20 02:53:34;;;;;;;4.90;3.30;;;;;;;;;;5056561;28;20184;-79
2022/09/20 02:56:01;;;;;;;5.70;3.53;;;;;;;;;;5067847;28;20196;-79
2022/09/20 02:58:38;;;;;;;6.97;3.70;;;;;;;;;;5080379;28;20307;-79
2022/09/20 03:01:04;;;;;;;7.27;4.20;;;;;;;;;;5083608;28;21071;-79
2022/09/20 03:04:02;;;;;;;5.43;3.33;;;;;;;;;;5079936;28;20184;-79
2022/09/20 03:06:44;;;;;;;5.43;3.23;;;;;;;;;;5029698;28;20596;-80
2022/09/20 03:09:18;;;;;;;7.17;3.97;;;;;;;;;;5066204;28;20954;-80
2022/09/20 03:12:06;;;;;;;7.67;3.87;;;;;;;;;;5085765;28;20179;-80
2022/09/20 03:14:43;;;;;;;4.70;3.43;;;;;;;;;;5066155;28;20180;-79
2022/09/20 03:17:35;;;;;;;6.40;3.57;;;;;;;;;;5079096;28;20180;-79
2022/09/20 03:20:10;;;;;;;6.00;3.53;;;;;;;;;;5082583;28;20574;-79
2022/09/20 03:22:57;;;;;;;5.67;3.67;;;;;;;;;;5088328;28;20846;-79
2022/09/20 03:25:23;;;;;;;5.53;3.10;;;;;;;;;;5088215;28;20232;-79
2022/09/20 03:28:06;;;;;;;6.93;4.07;;;;;;;;;;5057020;28;20204;-79
2022/09/20 03:30:51;;;;;;;5.57;3.23;;;;;;;;;;5087146;28;20177;-80
2022/09/20 03:33:35;;;;;;;4.83;3.10;;;;;;;;;;5094499;28;20591;-79
2022/09/20 03:36:25;;;;;;;5.63;3.80;;;;;;;;;;5094649;28;20276;-80
2022/09/20 03:39:05;;;;;;;5.47;3.20;;;;;;;;;;5063131;28;20304;-79
2022/09/20 03:41:40;;;;;;;5.37;3.67;;;;;;;;;;5092895;28;20186;-79
2022/09/20 03:44:30;;;;;;;7.23;3.77;;;;;;;;;;5087957;28;20524;-79
2022/09/20 03:47:15;;;;;;;6.75;4.10;;;;;;;;;;5078667;28;20839;-79
2022/09/20 03:49:49;;;;;;;8.00;4.00;;;;;;;;;;5091881;28;20204;-79
2022/09/20 03:52:15;;;;;;;6.77;4.13;;;;;;;;;;5093554;28;20606;-79
2022/09/20 03:54:45;;;;;;;4.60;3.30;;;;;;;;;;5095399;28;20176;-79
2022/09/20 03:57:11;;;;;;;5.70;3.47;;;;;;;;;;5092477;28;20259;-79
2022/09/20 03:59:56;;;;;;;7.83;3.47;;;;;;;;;;5078943;28;20715;-79
2022/09/20 04:02:25;;;;;;;6.30;3.90;;;;;;;;;;5092661;28;20200;-79
2022/09/20 04:04:57;;;;;;;4.70;3.40;;;;;;;;;;5069194;28;20174;-79
2022/09/20 04:07:26;;;;;;;4.87;3.43;;;;;;;;;;5071723;28;20846;-79
2022/09/20 04:10:12;;;;;;;5.47;3.50;;;;;;;;;;5091277;28;20200;-79
2022/09/20 04:12:52;;;;;;;5.03;3.07;;;;;;;;;;5090242;28;20238;-79
2022/09/20 04:15:44;;;;;;;5.57;3.20;;;;;;;;;;5092260;28;20184;-79
2022/09/20 04:18:23;;;;;;;6.23;3.97;;;;;;;;;;5062155;28;20213;-80
2022/09/20 04:20:57;;;;;;;8.07;4.30;;;;;;;;;;5079237;28;20195;-79
2022/09/20 04:23:37;;;;;;;7.03;3.97;;;;;;;;;;5074093;28;20234;-79
2022/09/20 04:26:04;;;;;;;8.45;5.90;;;;;;;;;;5073317;28;20512;-79
2022/09/20 04:28:42;;;;;;;5.30;4.20;;;;;;;;;;5088741;28;20218;-79
2022/09/20 04:31:16;;;;;;;5.53;4.43;;;;;;;;;;5064834;28;20246;-79
2022/09/20 04:33:44;;;;;;;6.40;4.37;;;;;;;;;;5082349;28;20184;-79
2022/09/20 04:36:29;;;;;;;8.10;4.37;;;;;;;;;;5075687;28;20178;-79
2022/09/20 04:39:03;;;;;;;5.13;3.47;;;;;;;;;;5071473;28;20271;-80
2022/09/20 04:41:49;;;;;;;4.73;2.80;;;;;;;;;;5059190;28;20188;-79
2022/09/20 04:44:29;;;;;;;3.58;2.40;;;;;;;;;;5084559;28;20945;-79
2022/09/20 04:47:07;;;;;;;3.10;2.80;;;;;;;;;;5068193;28;20184;-79
2022/09/20 04:49:49;;;;;;;5.83;3.20;;;;;;;;;;5054771;28;20299;-79
2022/09/20 04:52:28;;;;;;;7.17;3.90;;;;;;;;;;5082932;28;20170;-79
2022/09/20 04:54:54;;;;;;;5.38;4.07;;;;;;;;;;5073655;28;20484;-79
2022/09/20 04:57:35;;;;;;;9.90;5.60;;;;;;;;;;5074112;28;20263;-79
2022/09/20 05:00:11;;;;;;;6.67;4.63;;;;;;;;;;5074278;28;20303;-80
2022/09/20 05:02:54;;;;;;;6.23;4.00;;;;;;;;;;5087542;28;20193;-79
2022/09/20 05:05:23;;;;;;;6.60;4.20;;;;;;;;;;5063341;28;20231;-79
2022/09/20 05:08:15;;;;;;;10.47;5.30;;;;;;;;;;5075493;28;20210;-80
2022/09/20 05:11:00;;;;;;;8.47;4.37;;;;;;;;;;5077349;28;20260;-79
2022/09/20 05:13:46;;;;;;;5.57;4.13;;;;;;;;;;5068346;28;20176;-79
2022/09/20 05:16:21;;;;;;;5.67;4.10;;;;;;;;;;5079810;28;20192;-79
2022/09/20 05:18:53;;;;;;;6.27;4.07;;;;;;;;;;5073201;28;20215;-79
2022/09/20 05:21:38;;;;;;;6.57;3.87;;;;;;;;;;5091801;28;20585;-79
2022/09/20 05:24:16;;;;;;;5.17;4.07;;;;;;;;;;5054151;28;20196;-80
2022/09/20 05:26:55;;;;;;;9.23;4.67;;;;;;;;;;5087981;28;22083;-80
2022/09/20 05:29:28;;;;;;;4.90;3.70;;;;;;;;;;5072524;28;20251;-79
2022/09/20 05:32:20;;;;;;;8.23;4.67;;;;;;;;;;5092862;28;20185;-79
2022/09/20 05:34:56;;;;;;;11.23;5.00;;;;;;;;;;5056628;28;20200;-79
2022/09/20 05:37:28;;;;;;;8.87;5.20;;;;;;;;;;5079770;28;20675;-79
2022/09/20 05:40:01;;;;;;;8.90;4.87;;;;;;;;;;5057802;28;20976;-80
2022/09/20 05:42:43;;;;;;;12.30;6.27;;;;;;;;;;5090479;28;20195;-79
2022/09/20 05:45:28;;;;;;;6.03;4.43;;;;;;;;;;5058589;28;20195;-79
2022/09/20 05:48:13;;;;;;;8.03;4.53;;;;;;;;;;5063579;28;20201;-79
2022/09/20 05:50:41;;;;;;;9.33;5.07;;;;;;;;;;5091631;28;20181;-80
2022/09/20 05:53:28;;;;;;;6.27;3.90;;;;;;;;;;5072421;28;20631;-75
2022/09/20 05:56:02;;;;;;;5.37;4.00;;;;;;;;;;5083989;28;20237;-76
2022/09/20 05:58:47;;;;;;;7.60;4.33;;;;;;;;;;5088770;28;20216;-75
2022/09/20 06:01:21;;;;;;;5.43;4.37;;;;;;;;;;5088746;28;20242;-75
2022/09/20 06:03:54;;;;;;;9.93;6.20;;;;;;;;;;5084076;28;20195;-77
2022/09/20 06:06:42;;;;;;;9.30;5.43;;;;;;;;;;5051864;28;20180;-76
2022/09/20 06:09:08;;;;;;;8.37;5.50;;;;;;;;;;5084540;28;20231;-75
2022/09/20 06:11:40;;;;;;;9.93;6.00;;;;;;;;;;5067688;28;20173;-75
2022/09/20 06:14:17;;;;;;;9.50;5.23;;;;;;;;;;5061139;28;20251;-77
2022/09/20 06:16:43;;;;;;;7.93;5.30;;;;;;;;;;5084698;28;20188;-78
2022/09/20 06:19:14;;;;;;;10.00;5.30;;;;;;;;;;5069444;28;20209;-76
2022/09/20 06:21:50;;;;;;;5.80;4.90;;;;;;;;;;5085861;28;20176;-77
2022/09/20 06:24:26;;;;;;;10.77;5.90;;;;;;;;;;5087892;28;20184;-77
2022/09/20 06:26:53;;;;;;;7.23;5.40;;;;;;;;;;5069794;28;20240;-78
2022/09/20 06:29:27;;;;;;;10.50;6.33;;;;;;;;;;5088037;28;20196;-77
2022/09/20 06:31:53;;;;;;;7.90;6.20;;;;;;;;;;5083246;28;20185;-77
2022/09/20 06:34:20;;;;;;;10.03;7.83;;;;;;;;;;5065304;28;20236;-78
2022/09/20 06:42:20;;;;;;;6.90;5.07;;;;;;;;;;5079357;28;20164;-77
2022/09/20 06:44:46;;;;;;;9.23;5.73;;;;;;;;;;5068481;28;20231;-78
2022/09/20 06:47:13;;;;;;;9.47;5.67;;;;;;;;;;5085405;28;20187;-77
2022/09/20 06:49:41;;;;;;;8.83;5.30;;;;;;;;;;5082667;28;20193;-77
2022/09/20 06:52:14;;;;;;;5.40;4.00;;;;;;;;;;5069898;28;20184;-77
2022/09/20 06:54:44;;;;;;;7.07;4.83;;;;;;;;;;5086347;28;20226;-77
2022/09/20 06:57:12;;;;;;;10.53;4.40;;;;;;;;;;5068712;28;20200;-77
2022/09/20 06:59:38;;;;;;;7.60;4.63;;;;;;;;;;5071778;28;20240;-77
2022/09/20 07:02:04;;;;;;;8.53;5.17;;;;;;;;;;5091661;28;20849;-77
2022/09/20 07:04:31;;;;;;;7.43;5.40;;;;;;;;;;5082486;28;20551;-77
2022/09/20 07:07:01;;;;;;;6.50;5.00;;;;;;;;;;5088175;28;20699;-77
2022/09/20 07:09:27;;;;;;;11.40;5.13;;;;;;;;;;5091427;28;20208;-77
2022/09/20 07:11:54;;;;;;;7.90;5.43;;;;;;;;;;5091335;28;20180;-77
2022/09/20 07:14:22;;;;;;;7.70;5.30;;;;;;;;;;5068119;28;20176;-77
2022/09/20 07:16:48;;;;;;;9.43;5.23;;;;;;;;;;5091951;28;20545;-77
2022/09/20 07:19:15;;;;;;;6.90;4.30;;;;;;;;;;5089790;28;20188;-77
2022/09/20 07:21:41;;;;;;;7.77;4.97;;;;;;;;;;5090804;28;20184;-77
2022/09/20 07:24:07;;;;;;;7.33;4.27;;;;;;;;;;5090533;28;20210;-77
2022/09/20 07:26:34;;;;;;;7.97;4.67;;;;;;;;;;5091298;28;20177;-77
2022/09/20 07:29:00;;;;;;;9.80;4.83;;;;;;;;;;5092964;28;20776;-79
2022/09/20 07:31:28;;;;;;;9.50;5.30;;;;;;;;;;5090673;28;20215;-78
2022/09/20 07:33:54;;;;;;;8.90;5.13;;;;;;;;;;5090414;28;20713;-76
2022/09/20 07:36:21;;;;;;;9.40;5.10;;;;;;;;;;5088461;28;20176;-75
2022/09/20 07:38:49;;;;;;;8.17;5.30;;;;;;;;;;5085668;28;20212;-75
2022/09/20 07:41:17;;;;;;;8.33;5.07;;;;;;;;;;5091004;28;20191;-75
2022/09/20 07:43:44;;;;;;;9.20;5.00;;;;;;;;;;5080023;28;20207;-74
2022/09/20 07:46:12;;;;;;;6.47;4.67;;;;;;;;;;5083717;28;20185;-75
2022/09/20 07:48:39;;;;;;;9.80;5.20;;;;;;;;;;5090159;28;20218;-74
2022/09/20 07:51:10;;;;;;;9.40;4.90;;;;;;;;;;5086124;28;20651;-75
2022/09/20 07:53:37;;;;;;;8.40;5.20;;;;;;;;;;5088023;28;20229;-74
2022/09/20 07:56:07;;;;;;;8.83;5.10;;;;;;;;;;5067207;28;20261;-75
2022/09/20 07:58:34;;;;;;;7.77;5.00;;;;;;;;;;5086537;28;20231;-75
2022/09/20 08:01:01;;;;;;;9.77;5.13;;;;;;;;;;5082621;28;20241;-75
2022/09/20 08:03:31;;;;;;;8.07;4.27;;;;;;;;;;5088492;28;20187;-76
2022/09/20 08:06:04;;;;;;;15.57;5.63;;;;;;;;;;5090699;28;20165;-75
2022/09/20 08:08:37;;;;;;;7.37;4.90;;;;;;;;;;5090220;28;20212;-74
2022/09/20 08:11:05;;;;;;;16.77;6.40;;;;;;;;;;5077461;28;20176;-74
2022/09/20 08:13:34;;;;;;;12.83;5.27;;;;;;;;;;5079441;28;20162;-75
2022/09/20 08:16:04;;;;;;;9.30;5.33;;;;;;;;;;5068078;28;20178;-74
2022/09/20 08:18:31;;;;;;;9.67;4.90;;;;;;;;;;5082034;28;20208;-74
2022/09/20 08:21:05;;;;;;;9.70;5.53;;;;;;;;;;5064616;28;20192;-75
2022/09/20 08:23:33;;;;;;;9.27;5.30;;;;;;;;;;5063355;28;20188;-75
2022/09/20 08:26:00;;;;;;;8.90;5.63;;;;;;;;;;5088445;28;20177;-75
2022/09/20 08:28:26;;;;;;;10.30;5.80;;;;;;;;;;5090665;28;20683;-75
2022/09/20 08:30:53;;;;;;;9.03;5.23;;;;;;;;;;5089775;28;20206;-75
2022/09/20 08:33:19;;;;;;;8.07;5.40;;;;;;;;;;5090193;28;20386;-75
2022/09/20 08:35:48;;;;;;;10.50;5.50;;;;;;;;;;5090629;28;20256;-75
2022/09/20 08:38:14;;;;;;;10.40;5.10;;;;;;;;;;5072336;28;20201;-75
2022/09/20 08:40:40;;;;;;;8.83;5.10;;;;;;;;;;5072338;28;20204;-75
2022/09/20 08:43:08;;;;;;;7.20;4.80;;;;;;;;;;5089021;28;20266;-74
2022/09/20 08:45:34;;;;;;;9.80;5.30;;;;;;;;;;5067631;28;20185;-75
2022/09/20 08:48:04;;;;;;;11.17;5.23;;;;;;;;;;5086309;28;20207;-75
2022/09/20 08:50:33;;;;;;;12.57;4.97;;;;;;;;;;5089781;28;20284;-75
2022/09/20 08:53:03;;;;;;;7.93;4.40;;;;;;;;;;5083029;28;20181;-75
2022/09/20 08:55:31;;;;;;;9.73;4.30;;;;;;;;;;5087237;28;20627;-75
2022/09/20 08:57:58;;;;;;;10.30;4.40;;;;;;;;;;5083906;28;20196;-75
2022/09/20 09:00:28;;;;;;;9.80;4.30;;;;;;;;;;5077690;28;20185;-75
2022/09/20 09:02:55;;;;;;;9.83;4.53;;;;;;;;;;5065586;28;20219;-76
2022/09/20 09:05:32;;;;;;;10.70;4.30;;;;;;;;;;5084652;28;20668;-76
2022/09/20 09:08:00;;;;;;;10.80;4.10;;;;;;;;;;5079647;28;20196;-75
2022/09/20 09:10:37;;;;;;;7.73;3.70;;;;;;;;;;5065931;28;20186;-76
2022/09/20 09:13:05;;;;;;;7.30;4.40;;;;;;;;;;5093526;28;20662;-75
2022/09/20 09:15:35;;;;;;;8.73;4.20;;;;;;;;;;5080527;28;20219;-80
2022/09/20 09:18:02;;;;;;;8.10;4.33;;;;;;;;;;5078956;28;20173;-76
2022/09/20 09:20:28;;;;;;;7.57;4.20;;;;;;;;;;5081002;28;20186;-75
2022/09/20 09:23:05;;;;;;;6.40;3.90;;;;;;;;;;5080866;28;20805;-75
2022/09/20 09:25:33;;;;;;;8.30;4.17;;;;;;;;;;5076678;28;20199;-74
2022/09/20 09:27:59;;;;;;;5.33;3.50;;;;;;;;;;5063312;28;20691;-76
2022/09/20 09:30:27;;;;;;;8.73;4.20;;;;;;;;;;5082565;28;20539;-76
2022/09/20 09:33:13;;;;;;;8.10;3.57;;;;;;;;;;5082139;28;20241;-77
2022/09/20 09:35:39;;;;;;;6.10;3.50;;;;;;;;;;5063892;28;20238;-77
2022/09/20 09:38:15;;;;;;;7.40;3.63;;;;;;;;;;5085322;28;20202;-77
2022/09/20 09:40:49;;;;;;;6.17;3.03;;;;;;;;;;5066676;28;20659;-76
2022/09/20 09:43:26;;;;;;;9.70;4.00;;;;;;;;;;5076158;28;20184;-75
2022/09/20 09:45:52;;;;;;;7.93;3.20;;;;;;;;;;5080344;28;20198;-77
2022/09/20 09:48:18;;;;;;;5.43;3.37;;;;;;;;;;5086589;28;20253;-77
2022/09/20 09:50:46;;;;;;;7.50;3.30;;;;;;;;;;5048261;28;21101;-76
2022/09/20 09:53:14;;;;;;;7.90;3.30;;;;;;;;;;5077925;28;20208;-74
2022/09/20 09:55:47;;;;;;;8.87;3.40;;;;;;;;;;5078021;28;20176;-73
2022/09/20 09:58:32;;;;;;;7.77;3.30;;;;;;;;;;5077076;28;20290;-73
2022/09/20 10:00:59;;;;;;;8.30;3.30;;;;;;;;;;5075954;28;20208;-73
2022/09/20 10:03:34;;;;;;;7.67;3.20;;;;;;;;;;5059976;28;20829;-74
2022/09/20 10:06:21;;;;;;;12.43;3.53;;;;;;;;;;5077825;28;20190;-72
2022/09/20 10:09:06;;;;;;;7.60;2.90;;;;;;;;;;5081165;28;20262;-74
2022/09/20 10:11:45;;;;;;;5.63;2.90;;;;;;;;;;5076295;28;20200;-76
2022/09/20 10:14:40;;;;;;;7.80;3.20;;;;;;;;;;5047547;28;20173;-75
2022/09/20 10:17:09;;;;;;;8.63;3.33;;;;;;;;;;5051314;28;20695;-73
2022/09/20 10:19:54;;;;;;;6.33;2.93;;;;;;;;;;5075211;28;20823;-73
2022/09/20 10:22:53;;;;;;;4.43;2.80;;;;;;;;;;5077879;28;20169;-73
2022/09/20 10:25:37;;;;;;;5.77;3.20;;;;;;;;;;5011358;28;20250;-74
2022/09/20 10:28:15;;;;;;;9.37;2.80;;;;;;;;;;5057478;28;20268;-74
2022/09/20 10:30:51;;;;;;;5.53;2.80;;;;;;;;;;5078959;28;20192;-74
2022/09/20 10:33:36;;;;;;;6.17;2.40;;;;;;;;;;5075518;28;20237;-74
2022/09/20 10:36:29;;;;;;;7.43;3.13;;;;;;;;;;5058630;28;20249;-74
2022/09/20 10:39:09;;;;;;;7.40;3.20;;;;;;;;;;5069615;28;20645;-74
2022/09/20 10:44:55;;;;;;;4.77;2.60;;;;;;;;;;4987870;28;20698;-74
2022/09/20 10:47:27;;;;;;;5.33;3.57;;;;;;;;;;5076819;28;20190;-74
2022/09/20 10:50:03;;;;;;;6.87;3.33;;;;;;;;;;5078400;28;20195;-75
2022/09/20 10:52:35;;;;;;;7.13;3.33;;;;;;;;;;5076382;28;20184;-74
2022/09/20 10:55:05;;;;;;;7.47;2.90;;;;;;;;;;5080188;28;20182;-80
2022/09/20 10:57:36;;;;;;;5.90;2.93;;;;;;;;;;5062589;28;20594;-80
2022/09/20 11:00:07;;;;;;;5.97;2.97;;;;;;;;;;5072254;28;20279;-81
2022/09/20 11:02:49;;;;;;;6.60;3.20;;;;;;;;;;5085029;28;20185;-83
2022/09/20 11:05:17;;;;;;;4.57;2.50;;;;;;;;;;5046275;28;20212;-78
2022/09/20 11:07:43;;;;;;;5.57;2.60;;;;;;;;;;5079491;28;20260;-76
2022/09/20 11:10:21;;;;;;;3.70;2.10;;;;;;;;;;5081787;28;20279;-75
2022/09/20 11:12:59;;;;;;;3.83;2.40;;;;;;;;;;5076155;28;20176;-79
2022/09/20 11:15:29;;;;;;;5.53;2.10;;;;;;;;;;5046987;28;20551;-85
2022/09/20 11:18:10;;;;;;;4.43;1.83;;;;;;;;;;5054108;28;20181;-84
2022/09/20 11:20:47;;;;;;;3.27;1.63;;;;;;;;;;5023458;28;20199;-84
2022/09/20 11:23:20;;;;;;;2.57;1.60;;;;;;;;;;5021928;28;20259;-85
2022/09/20 11:25:52;;;;;;;3.73;2.00;;;;;;;;;;5057569;28;20223;-84
2022/09/20 11:28:21;;;;;;;3.10;1.30;;;;;;;;;;5042722;28;20216;-86
2022/09/20 11:31:11;;;;;;;3.27;1.70;;;;;;;;;;5044872;28;20192;-86
2022/09/20 11:33:47;;;;;;;3.13;1.83;;;;;;;;;;5045699;28;20200;-84
2022/09/20 11:36:16;;;;;;;2.70;1.70;;;;;;;;;;5067670;28;20540;-85
2022/09/20 11:39:08;;;;;;;3.60;1.63;;;;;;;;;;5070108;28;20197;-85
2022/09/20 11:41:35;;;;;;;4.23;2.00;;;;;;;;;;5061737;28;20188;-85
2022/09/20 11:44:11;;;;;;;2.87;1.83;;;;;;;;;;5034633;28;20192;-78
2022/09/20 11:46:37;;;;;;;5.33;2.03;;;;;;;;;;5085272;28;20245;-79
2022/09/20 11:49:20;;;;;;;3.43;1.80;;;;;;;;;;5085101;28;20711;-79
2022/09/20 11:52:05;;;;;;;3.53;2.30;;;;;;;;;;5060172;28;20184;-81
2022/09/20 11:54:31;;;;;;;3.50;2.17;;;;;;;;;;5064846;28;20174;-79
2022/09/20 11:56:59;;;;;;;3.67;1.90;;;;;;;;;;5078984;28;20188;-81
2022/09/20 11:59:28;;;;;;;5.20;2.60;;;;;;;;;;5047680;28;20216;-84
2022/09/20 12:01:56;;;;;;;3.80;2.20;;;;;;;;;;5060969;28;20509;-75
2022/09/20 12:04:25;;;;;;;3.43;2.37;;;;;;;;;;5080149;28;20177;-71
2022/09/20 12:06:58;;;;;;;4.60;2.10;;;;;;;;;;5077742;28;20920;-74
2022/09/20 12:09:25;;;;;;;2.57;1.57;;;;;;;;;;5078660;28;20220;-74
2022/09/20 12:11:51;;;;;;;3.70;2.20;;;;;;;;;;5079879;28;20241;-73
2022/09/20 12:14:19;;;;;;;4.77;2.00;;;;;;;;;;5080051;28;20188;-73
2022/09/20 12:16:47;;;;;;;3.67;1.60;;;;;;;;;;5077771;28;20266;-73
2022/09/20 12:19:14;;;;;;;2.80;1.57;;;;;;;;;;5076607;28;20618;-72
2022/09/20 12:21:59;;;;;;;2.20;1.50;;;;;;;;;;5078779;28;20730;-73
2022/09/20 12:24:32;;;;;;;2.93;1.50;;;;;;;;;;5077607;28;20196;-74
2022/09/20 12:27:05;;;;;;;4.20;1.67;;;;;;;;;;5079047;28;20188;-74
2022/09/20 12:29:35;;;;;;;2.47;1.50;;;;;;;;;;5082086;28;20232;-74
2022/09/20 12:32:02;;;;;;;1.60;1.30;;;;;;;;;;5076396;28;20180;-74
2022/09/20 12:34:34;;;;;;;2.17;1.30;;;;;;;;;;5076159;28;20259;-74
2022/09/20 12:37:00;;;;;;;1.97;1.60;;;;;;;;;;5057689;28;20227;-74
2022/09/20 12:39:27;;;;;;;2.07;1.30;;;;;;;;;;5076617;28;20250;-74
2022/09/20 12:42:02;;;;;;;2.77;1.57;;;;;;;;;;5078360;28;20193;-74
2022/09/20 12:44:28;;;;;;;3.10;1.30;;;;;;;;;;5075550;28;20234;-74
2022/09/20 12:46:57;;;;;;;2.63;1.27;;;;;;;;;;5078499;28;20666;-74
2022/09/20 12:52:49;;;;;;;3.17;1.47;;;;;;;;;;5058743;28;20178;-75
2022/09/20 12:55:35;;;;;;;3.93;1.70;;;;;;;;;;5051424;28;20200;-74
2022/09/20 12:58:09;;;;;;;2.27;1.43;;;;;;;;;;5075508;28;20220;-74
2022/09/20 13:00:41;;;;;;;4.00;1.90;;;;;;;;;;5077161;28;20752;-74
2022/09/20 13:03:28;;;;;;;2.40;1.70;;;;;;;;;;5076367;28;20867;-74
2022/09/20 13:06:12;;;;;;;4.33;1.83;;;;;;;;;;5077579;28;20263;-75
2022/09/20 13:08:57;;;;;;;2.97;1.73;;;;;;;;;;5056827;28;20227;-74
2022/09/20 13:11:27;;;;;;;2.57;1.50;;;;;;;;;;5076638;28;20176;-74
2022/09/20 13:13:57;;;;;;;2.53;1.77;;;;;;;;;;5077853;28;20301;-75
2022/09/20 13:16:44;;;;;;;3.47;2.10;;;;;;;;;;5042395;28;20534;-74
2022/09/20 13:19:28;;;;;;;3.50;1.83;;;;;;;;;;5075834;28;20272;-75
2022/09/20 13:22:02;;;;;;;4.33;1.97;;;;;;;;;;5079687;28;20713;-75
2022/09/20 13:24:41;;;;;;;2.47;1.53;;;;;;;;;;5076068;28;20258;-75
2022/09/20 13:27:19;;;;;;;4.60;2.10;;;;;;;;;;5077309;28;20184;-75
2022/09/20 13:29:45;;;;;;;3.57;1.80;;;;;;;;;;5076426;28;20208;-75
2022/09/20 13:32:23;;;;;;;3.23;1.70;;;;;;;;;;5080613;28;20181;-75
2022/09/20 13:35:07;;;;;;;3.70;1.90;;;;;;;;;;5084237;28;20288;-75
2022/09/20 13:37:34;;;;;;;2.37;1.73;;;;;;;;;;5076287;28;20187;-75
2022/09/20 13:40:02;;;;;;;3.70;1.80;;;;;;;;;;5078020;28;20228;-75
2022/09/20 13:42:29;;;;;;;3.80;1.87;;;;;;;;;;5075436;28;20181;-75
2022/09/20 13:44:57;;;;;;;2.70;1.70;;;;;;;;;;5077179;28;20213;-75
2022/09/20 13:47:28;;;;;;;3.97;1.77;;;;;;;;;;5058276;28;20184;-75
2022/09/20 13:49:59;;;;;;;4.50;2.03;;;;;;;;;;5059196;28;20568;-75
2022/09/20 13:52:27;;;;;;;4.27;1.70;;;;;;;;;;5078389;28;20168;-75
2022/09/20 13:54:54;;;;;;;5.47;2.00;;;;;;;;;;5077966;28;20678;-75
2022/09/20 13:57:22;;;;;;;3.33;1.73;;;;;;;;;;5076293;28;20205;-75
2022/09/20 13:59:49;;;;;;;2.70;1.77;;;;;;;;;;5079019;28;20211;-75
2022/09/20 14:02:24;;;;;;;3.37;1.93;;;;;;;;;;5078076;28;20293;-77
2022/09/20 14:04:53;;;;;;;2.50;1.80;;;;;;;;;;5077097;28;20420;-75
2022/09/20 14:07:20;;;;;;;2.83;1.60;;;;;;;;;;5076989;28;21398;-75
2022/09/20 14:09:46;;;;;;;2.33;1.53;;;;;;;;;;5076695;28;20299;-75
2022/09/20 14:12:13;;;;;;;2.53;1.60;;;;;;;;;;5078030;28;20204;-75
2022/09/20 14:14:40;;;;;;;3.00;1.47;;;;;;;;;;5074938;28;20185;-75
2022/09/20 14:17:08;;;;;;;4.10;1.60;;;;;;;;;;5076402;28;20583;-75
2022/09/20 14:19:39;;;;;;;3.40;1.60;;;;;;;;;;5074820;28;20295;-75
2022/09/20 14:22:06;;;;;;;3.03;1.50;;;;;;;;;;5060707;28;20670;-75
2022/09/20 14:24:36;;;;;;;2.73;1.70;;;;;;;;;;5085637;28;20190;-75
2022/09/20 14:27:21;;;;;;;4.07;1.43;;;;;;;;;;5080314;28;20172;-75
2022/09/20 14:29:49;;;;;;;3.73;1.70;;;;;;;;;;5079663;28;20656;-75
2022/09/20 14:32:15;;;;;;;3.13;1.80;;;;;;;;;;5076314;28;20199;-75
2022/09/20 14:34:42;;;;;;;2.03;1.43;;;;;;;;;;5074764;28;20193;-75
2022/09/20 14:37:16;;;;;;;2.37;1.47;;;;;;;;;;5075701;28;20645;-75
2022/09/20 14:39:47;;;;;;;2.63;1.60;;;;;;;;;;5078169;28;20783;-75
2022/09/20 14:42:32;;;;;;;2.47;1.60;;;;;;;;;;5070819;28;20205;-75
2022/09/20 14:44:58;;;;;;;2.23;1.70;;;;;;;;;;5076211;28;20199;-76
2022/09/20 14:47:35;;;;;;;1.93;1.40;;;;;;;;;;5074233;28;20605;-76
2022/09/20 14:50:02;;;;;;;2.87;1.67;;;;;;;;;;5082583;28;20200;-76
2022/09/20 14:52:29;;;;;;;2.47;1.50;;;;;;;;;;5081116;28;20238;-74
2022/09/20 14:54:59;;;;;;;2.20;1.60;;;;;;;;;;5081106;28;20184;-74
2022/09/20 14:57:26;;;;;;;2.70;1.50;;;;;;;;;;5083798;28;20176;-76
2022/09/20 14:59:56;;;;;;;2.60;1.50;;;;;;;;;;5074671;28;20288;-74
2022/09/20 15:02:24;;;;;;;2.73;1.60;;;;;;;;;;5075334;28;20279;-78
2022/09/20 15:04:59;;;;;;;2.80;1.40;;;;;;;;;;5080926;28;20196;-75
2022/09/20 15:07:26;;;;;;;2.60;1.40;;;;;;;;;;5081198;28;20179;-76
2022/09/20 15:09:52;;;;;;;2.93;1.90;;;;;;;;;;5069003;28;20205;-75
2022/09/20 15:12:20;;;;;;;3.40;1.73;;;;;;;;;;5069591;28;20181;-75
2022/09/20 15:14:46;;;;;;;3.00;1.83;;;;;;;;;;5070071;28;20625;-75
2022/09/20 15:17:17;;;;;;;3.07;1.80;;;;;;;;;;5068357;28;20276;-75
2022/09/20 15:19:43;;;;;;;2.90;1.87;;;;;;;;;;5069251;28;20212;-75
2022/09/20 15:22:10;;;;;;;4.43;1.80;;;;;;;;;;5070569;28;20196;-75
2022/09/20 15:24:36;;;;;;;3.40;1.90;;;;;;;;;;5071162;28;20192;-75
2022/09/20 15:27:03;;;;;;;3.93;2.10;;;;;;;;;;5070029;28;20185;-75
2022/09/20 15:29:29;;;;;;;3.83;1.80;;;;;;;;;;5079115;28;20219;-75